createdAt,value
2023-11-23T00:01:25.126Z,23.25
2023-11-23T00:03:52.319Z,23.70
2023-11-23T00:06:19.713Z,22.90
2023-11-23T00:08:46.880Z,24.27
2023-11-23T00:11:14.283Z,24.80
2023-11-23T00:13:41.693Z,23.15
2023-11-23T00:16:09.458Z,25.35
2023-11-23T00:18:36.669Z,24.67
2023-11-23T00:21:04.244Z,24.73
2023-11-23T00:23:33.201Z,25.52
2023-11-23T00:26:00.665Z,25.42
2023-11-23T00:28:27.824Z,23.65
2023-11-23T00:30:55.252Z,24.52
2023-11-23T00:33:22.527Z,23.88
2023-11-23T00:35:50.032Z,22.73
2023-11-23T00:38:20.226Z,23.10
2023-11-23T00:40:47.668Z,22.77
2023-11-23T00:43:15.126Z,23.83
2023-11-23T00:45:42.600Z,23.20
2023-11-23T00:48:09.942Z,22.80
2023-11-23T00:50:37.579Z,22.63
2023-11-23T00:53:04.828Z,20.42
2023-11-23T00:55:32.355Z,20.50
2023-11-23T00:58:00.764Z,21.10
2023-11-23T01:00:30.366Z,22.23
2023-11-23T01:02:57.673Z,21.15
2023-11-23T01:05:25.238Z,22.42
2023-11-23T01:07:52.317Z,21.25
2023-11-23T01:10:19.835Z,21.10
2023-11-23T01:12:47.107Z,20.35
2023-11-23T01:15:14.665Z,21.80
2023-11-23T01:17:41.952Z,21.35
2023-11-23T01:20:10.167Z,20.08
2023-11-23T01:22:37.723Z,20.90
2023-11-23T01:25:10.012Z,21.23
2023-11-23T01:27:37.504Z,21.08
2023-11-23T01:30:09.319Z,19.27
2023-11-23T01:32:36.549Z,21.20
2023-11-23T01:35:04.506Z,21.45
2023-11-23T01:37:31.792Z,19.45
2023-11-23T01:39:59.339Z,20.13
2023-11-23T01:42:26.510Z,18.55
2023-11-23T01:44:53.984Z,20.50
2023-11-23T01:47:22.429Z,19.17
2023-11-23T01:49:52.048Z,18.63
2023-11-23T01:52:19.242Z,18.38
2023-11-23T01:54:46.675Z,17.80
2023-11-23T01:57:14.017Z,18.92
2023-11-23T01:59:41.514Z,18.15
2023-11-23T02:02:08.959Z,19.13
2023-11-23T02:04:36.487Z,18.35
2023-11-23T02:07:03.947Z,18.52
2023-11-23T02:09:32.211Z,19.50
2023-11-23T02:11:59.550Z,19.02
2023-11-23T02:14:27.046Z,18.80
2023-11-23T02:16:54.819Z,18.13
2023-11-23T02:19:22.488Z,18.33
2023-11-23T02:21:50.756Z,19.40
2023-11-23T02:24:18.191Z,19.05
2023-11-23T02:26:45.458Z,18.80
2023-11-23T02:29:13.033Z,20.65
2023-11-23T02:31:40.247Z,18.30
2023-11-23T02:34:08.190Z,18.85
2023-11-23T02:36:35.332Z,19.55
2023-11-23T02:39:02.838Z,17.75
2023-11-23T02:41:30.068Z,18.67
2023-11-23T02:43:57.521Z,18.02
2023-11-23T02:46:24.777Z,18.70
2023-11-23T02:48:52.244Z,17.77
2023-11-23T02:51:20.572Z,18.60
2023-11-23T02:53:49.533Z,18.65
2023-11-23T02:56:16.835Z,18.45
2023-11-23T02:58:44.341Z,17.30
2023-11-23T03:01:11.574Z,17.02
2023-11-23T03:03:39.946Z,18.10
2023-11-23T03:06:08.650Z,18.38
2023-11-23T03:08:36.194Z,18.77
2023-11-23T03:11:05.911Z,18.75
2023-11-23T03:13:33.507Z,17.60
2023-11-23T03:16:00.680Z,19.30
2023-11-23T03:18:28.193Z,17.83
2023-11-23T03:20:55.486Z,17.35
2023-11-23T03:23:23.086Z,18.30
2023-11-23T03:25:50.280Z,16.88
2023-11-23T03:28:17.651Z,19.63
2023-11-23T03:30:44.784Z,17.67
2023-11-23T03:33:12.375Z,19.88
2023-11-23T03:35:40.049Z,19.23
2023-11-23T03:38:08.803Z,18.45
2023-11-23T03:40:36.421Z,19.13
2023-11-23T03:43:04.409Z,18.60
2023-11-23T03:45:32.044Z,19.00
2023-11-23T03:48:00.167Z,18.00
2023-11-23T03:50:27.434Z,18.00
2023-11-23T03:52:55.016Z,19.17
2023-11-23T03:55:23.374Z,18.15
2023-11-23T03:57:51.242Z,18.27
2023-11-23T04:00:18.656Z,18.70
2023-11-23T04:02:47.506Z,18.45
2023-11-23T04:05:19.069Z,18.92
2023-11-23T04:07:50.907Z,19.35
2023-11-23T04:10:19.130Z,19.20
2023-11-23T04:12:49.130Z,17.50
2023-11-23T04:15:17.711Z,19.50
2023-11-23T04:17:45.554Z,18.58
2023-11-23T04:20:13.006Z,20.08
2023-11-23T04:22:40.562Z,19.55
2023-11-23T04:25:08.055Z,19.42
2023-11-23T04:27:35.583Z,20.08
2023-11-23T04:30:02.838Z,18.92
2023-11-23T04:32:30.431Z,18.40
2023-11-23T04:34:58.013Z,18.95
2023-11-23T04:37:25.554Z,19.90
2023-11-23T04:39:53.014Z,18.27
2023-11-23T04:42:21.047Z,19.77
2023-11-23T04:44:48.347Z,18.45
2023-11-23T04:47:15.885Z,18.25
2023-11-23T04:49:43.087Z,18.58
2023-11-23T04:52:10.554Z,19.92
2023-11-23T04:54:37.797Z,18.05
2023-11-23T04:57:05.842Z,19.08
2023-11-23T04:59:33.047Z,18.85
2023-11-23T05:02:00.514Z,18.10
2023-11-23T05:04:27.981Z,18.67
2023-11-23T05:06:57.352Z,20.40
2023-11-23T05:09:24.651Z,17.42
2023-11-23T05:11:52.254Z,18.30
2023-11-23T05:14:19.688Z,18.60
2023-11-23T05:16:47.707Z,18.35
2023-11-23T05:19:21.583Z,17.60
2023-11-23T05:21:55.409Z,17.27
2023-11-23T05:24:22.579Z,17.13
2023-11-23T05:26:50.125Z,17.63
2023-11-23T05:29:18.537Z,16.98
2023-11-23T05:31:45.985Z,17.90
2023-11-23T05:34:13.083Z,17.10
2023-11-23T05:36:40.538Z,18.30
2023-11-23T05:39:07.766Z,16.70
2023-11-23T05:41:35.300Z,16.92
2023-11-23T05:44:02.423Z,17.63
2023-11-23T05:46:31.792Z,17.25
2023-11-23T05:48:59.130Z,16.70
2023-11-23T05:51:26.626Z,17.90
2023-11-23T05:53:53.804Z,17.73
2023-11-23T05:56:22.037Z,17.40
2023-11-23T05:58:49.724Z,16.60
2023-11-23T06:01:18.069Z,17.38
2023-11-23T06:03:45.415Z,16.35
2023-11-23T06:06:24.050Z,15.68
2023-11-23T06:08:51.863Z,17.38
2023-11-23T06:11:19.746Z,16.20
2023-11-23T06:13:47.308Z,15.60
2023-11-23T06:16:15.862Z,17.33
2023-11-23T06:18:43.663Z,16.25
2023-11-23T06:21:11.558Z,16.73
2023-11-23T06:23:39.258Z,16.60
2023-11-23T06:26:08.578Z,16.50
2023-11-23T06:28:35.812Z,16.05
2023-11-23T06:31:03.387Z,17.75
2023-11-23T06:33:30.631Z,17.25
2023-11-23T06:35:58.205Z,17.58
2023-11-23T06:38:25.537Z,16.52
2023-11-23T06:40:53.566Z,17.95
2023-11-23T06:43:20.861Z,17.05
2023-11-23T06:45:48.434Z,18.02
2023-11-23T06:48:15.673Z,17.85
2023-11-23T06:50:43.350Z,17.67
2023-11-23T06:53:10.769Z,17.42
2023-11-23T06:55:38.190Z,17.60
2023-11-23T06:58:07.994Z,18.55
2023-11-23T07:00:36.308Z,19.00
2023-11-23T07:03:03.666Z,18.63
2023-11-23T07:05:31.144Z,18.25
2023-11-23T07:07:58.431Z,18.52
2023-11-23T07:10:25.790Z,18.33
2023-11-23T07:12:52.981Z,19.45
2023-11-23T07:15:20.568Z,18.48
2023-11-23T07:17:49.107Z,18.92
2023-11-23T07:20:16.931Z,18.92
2023-11-23T07:22:44.060Z,17.17
2023-11-23T07:25:11.999Z,18.48
2023-11-23T07:27:39.474Z,17.95
2023-11-23T07:30:08.333Z,18.73
2023-11-23T07:32:37.261Z,19.25
2023-11-23T07:35:06.506Z,18.17
2023-11-23T07:37:35.520Z,18.67
2023-11-23T07:40:15.019Z,18.73
2023-11-23T07:42:44.529Z,19.13
2023-11-23T07:45:13.220Z,18.80
2023-11-23T07:47:45.521Z,18.65
2023-11-23T07:50:13.571Z,18.48
2023-11-23T07:52:40.748Z,18.45
2023-11-23T07:55:11.204Z,18.90
2023-11-23T07:57:38.651Z,18.33
2023-11-23T08:00:08.961Z,18.77
2023-11-23T08:02:36.591Z,17.98
2023-11-23T08:05:06.310Z,18.58
2023-11-23T08:07:33.569Z,18.10
2023-11-23T08:10:01.051Z,18.92
2023-11-23T08:12:28.209Z,18.90
2023-11-23T08:14:55.705Z,18.42
2023-11-23T08:17:22.855Z,18.83
2023-11-23T08:19:52.136Z,19.05
2023-11-23T08:22:21.970Z,19.63
2023-11-23T08:24:49.637Z,21.45
2023-11-23T08:27:16.762Z,20.83
2023-11-23T08:29:44.679Z,20.13
2023-11-23T08:32:14.143Z,19.15
2023-11-23T08:34:44.723Z,19.65
2023-11-23T08:37:12.257Z,20.10
2023-11-23T08:39:41.357Z,20.33
2023-11-23T08:42:08.942Z,18.95
2023-11-23T08:44:37.137Z,18.75
2023-11-23T08:47:04.670Z,18.65
2023-11-23T08:49:32.713Z,18.85
2023-11-23T08:51:59.854Z,19.55
2023-11-23T08:54:27.346Z,19.48
2023-11-23T08:56:54.657Z,18.88
2023-11-23T08:59:22.219Z,18.77
2023-11-23T09:01:57.116Z,19.75
2023-11-23T09:04:40.050Z,18.42
2023-11-23T09:07:10.313Z,19.17
2023-11-23T09:09:37.761Z,18.65
2023-11-23T09:12:05.367Z,20.70
2023-11-23T09:14:42.823Z,19.00
2023-11-23T09:17:16.022Z,19.20
2023-11-23T09:19:43.617Z,20.45
2023-11-23T09:22:12.105Z,17.67
2023-11-23T09:24:40.495Z,18.08
2023-11-23T09:27:07.978Z,18.83
2023-11-23T09:29:35.885Z,18.75
2023-11-23T09:32:04.662Z,18.10
2023-11-23T09:34:32.506Z,17.77
2023-11-23T09:36:59.590Z,18.20
2023-11-23T09:39:27.153Z,17.90
2023-11-23T09:42:01.221Z,18.45
2023-11-23T09:44:28.651Z,18.10
2023-11-23T09:46:57.281Z,17.90
2023-11-23T09:49:26.136Z,18.25
2023-11-23T09:51:53.637Z,17.45
2023-11-23T09:54:23.322Z,18.70
2023-11-23T09:56:51.038Z,18.75
2023-11-23T09:59:18.707Z,16.92
2023-11-23T10:01:49.388Z,19.30
2023-11-23T10:04:19.972Z,18.38
2023-11-23T10:06:47.593Z,17.75
2023-11-23T10:09:18.661Z,18.30
2023-11-23T10:11:48.168Z,19.00
2023-11-23T10:14:17.261Z,19.50
2023-11-23T10:16:44.572Z,18.80
2023-11-23T10:19:24.631Z,17.13
2023-11-23T10:21:56.338Z,17.52
2023-11-23T10:24:25.355Z,17.38
2023-11-23T10:26:54.107Z,17.42
2023-11-23T10:29:29.640Z,18.23
2023-11-23T10:32:02.967Z,18.02
2023-11-23T10:34:31.370Z,17.42
2023-11-23T10:37:00.467Z,15.63
2023-11-23T10:39:30.023Z,16.02
2023-11-23T10:41:58.613Z,17.27
2023-11-23T10:44:31.007Z,17.48
2023-11-23T10:47:04.540Z,16.98
2023-11-23T10:49:36.045Z,15.85
2023-11-23T10:52:05.066Z,17.25
2023-11-23T10:54:33.331Z,15.82
2023-11-23T10:57:05.115Z,16.48
2023-11-23T10:59:33.795Z,16.85
2023-11-23T11:02:02.765Z,17.17
2023-11-23T11:04:30.838Z,18.02
2023-11-23T11:06:58.804Z,17.23
2023-11-23T11:09:30.622Z,17.60
2023-11-23T11:12:02.035Z,17.55
2023-11-23T11:14:36.949Z,18.77
2023-11-23T11:17:08.581Z,17.10
2023-11-23T11:19:49.082Z,17.92
2023-11-23T11:22:17.047Z,17.15
2023-11-23T11:24:47.289Z,17.30
2023-11-23T11:27:14.556Z,18.08
2023-11-23T11:29:54.382Z,18.08
2023-11-23T11:32:24.455Z,16.90
2023-11-23T11:35:02.215Z,17.48
2023-11-23T11:37:33.147Z,16.70
2023-11-23T11:40:04.766Z,18.52
2023-11-23T11:42:32.125Z,17.70
2023-11-23T11:44:59.868Z,16.52
2023-11-23T11:47:29.113Z,15.95
2023-11-23T11:49:58.805Z,15.65
2023-11-23T11:52:27.837Z,15.40
2023-11-23T11:54:56.330Z,15.60
2023-11-23T11:57:23.507Z,15.43
2023-11-23T11:59:52.432Z,16.40
2023-11-23T12:02:20.460Z,15.73
2023-11-23T12:04:59.037Z,14.55
2023-11-23T12:07:26.685Z,15.20
2023-11-23T12:09:57.279Z,15.57
2023-11-23T12:12:24.540Z,15.52
2023-11-23T12:14:52.403Z,15.65
2023-11-23T12:17:19.727Z,14.00
2023-11-23T12:19:53.073Z,15.32
2023-11-23T12:22:28.259Z,15.25
2023-11-23T12:24:57.631Z,14.88
2023-11-23T12:27:28.565Z,15.23
2023-11-23T12:29:56.200Z,15.32
2023-11-23T12:32:23.998Z,14.90
2023-11-23T12:34:51.507Z,15.30
2023-11-23T12:37:20.449Z,15.27
2023-11-23T12:39:51.434Z,14.32
2023-11-23T12:42:18.823Z,14.15
2023-11-23T12:44:47.770Z,14.60
2023-11-23T12:47:15.303Z,15.20
2023-11-23T12:49:44.051Z,14.60
2023-11-23T12:52:11.209Z,15.23
2023-11-23T12:54:38.755Z,13.75
2023-11-23T12:57:06.000Z,14.05
2023-11-23T12:59:33.560Z,14.05
2023-11-23T13:02:00.923Z,14.80
2023-11-23T13:04:31.191Z,14.48
2023-11-23T13:06:59.092Z,13.63
2023-11-23T13:09:28.759Z,14.45
2023-11-23T13:11:58.317Z,13.65
2023-11-23T13:14:25.930Z,13.25
2023-11-23T13:16:54.051Z,13.00
2023-11-23T13:19:30.139Z,13.38
2023-11-23T13:22:05.561Z,12.80
2023-11-23T13:24:34.046Z,12.73
2023-11-23T13:27:02.675Z,13.20
2023-11-23T13:29:30.375Z,14.43
2023-11-23T13:31:59.293Z,13.95
2023-11-23T13:34:27.667Z,14.45
2023-11-23T13:36:55.044Z,13.15
2023-11-23T13:39:22.898Z,11.65
2023-11-23T13:41:50.656Z,11.68
2023-11-23T13:44:19.270Z,12.18
2023-11-23T13:46:46.657Z,11.38
2023-11-23T13:49:15.006Z,11.77
2023-11-23T13:51:42.227Z,11.50
2023-11-23T13:54:10.957Z,11.20
2023-11-23T13:56:41.466Z,11.13
2023-11-23T13:59:12.390Z,11.10
2023-11-23T14:01:40.436Z,11.77
2023-11-23T14:04:08.430Z,11.95
2023-11-23T14:06:35.832Z,11.98
2023-11-23T14:09:05.025Z,13.10
2023-11-23T14:11:32.379Z,12.07
2023-11-23T14:14:01.769Z,11.73
2023-11-23T14:16:30.936Z,12.40
2023-11-23T14:18:58.571Z,11.90
2023-11-23T14:21:28.386Z,12.38
2023-11-23T14:23:57.207Z,13.18
2023-11-23T14:26:24.415Z,12.48
2023-11-23T14:28:52.261Z,13.02
2023-11-23T14:31:23.756Z,12.55
2023-11-23T14:33:56.291Z,14.38
2023-11-23T14:36:23.770Z,13.70
2023-11-23T14:38:52.812Z,14.48
2023-11-23T14:41:23.747Z,13.27
2023-11-23T14:43:51.530Z,12.63
2023-11-23T14:46:18.944Z,12.65
2023-11-23T14:48:46.637Z,13.27
2023-11-23T14:51:13.843Z,12.60
2023-11-23T14:53:41.279Z,13.77
2023-11-23T14:56:10.810Z,12.63
2023-11-23T14:58:38.569Z,12.45
2023-11-23T15:01:07.394Z,12.50
2023-11-23T15:03:36.366Z,12.30
2023-11-23T15:06:03.978Z,11.80
2023-11-23T15:08:31.829Z,13.13
2023-11-23T15:10:59.525Z,12.05
2023-11-23T15:13:32.813Z,11.73
2023-11-23T15:16:05.865Z,11.90
2023-11-23T15:18:34.657Z,12.00
2023-11-23T15:21:02.198Z,11.82
2023-11-23T15:23:30.927Z,10.73
2023-11-23T15:25:58.370Z,12.35
2023-11-23T15:28:26.989Z,12.13
2023-11-23T15:30:54.370Z,11.75
2023-11-23T15:33:22.041Z,12.02
2023-11-23T15:35:49.587Z,12.82
2023-11-23T15:38:17.433Z,13.35
2023-11-23T15:40:53.711Z,12.75
2023-11-23T15:43:21.210Z,12.75
2023-11-23T15:45:48.611Z,12.80
2023-11-23T15:48:16.459Z,12.93
2023-11-23T15:50:43.677Z,11.63
2023-11-23T15:53:11.352Z,11.85
2023-11-23T15:55:39.575Z,11.63
2023-11-23T15:58:07.153Z,12.18
2023-11-23T16:00:39.384Z,10.43
2023-11-23T16:03:06.874Z,10.68
2023-11-23T16:05:34.886Z,10.60
2023-11-23T16:08:02.481Z,10.88
2023-11-23T16:10:29.812Z,9.90
2023-11-23T16:12:58.127Z,10.27
2023-11-23T16:15:25.630Z,9.80
2023-11-23T16:17:53.204Z,10.25
2023-11-23T16:20:21.896Z,9.98
2023-11-23T16:22:50.832Z,9.90
2023-11-23T16:25:18.233Z,10.48
2023-11-23T16:27:46.273Z,11.02
2023-11-23T16:30:15.262Z,9.38
2023-11-23T16:32:43.678Z,9.95
2023-11-23T16:35:12.603Z,9.50
2023-11-23T16:37:40.308Z,9.35
2023-11-23T16:40:11.710Z,9.70
2023-11-23T16:42:43.449Z,9.10
2023-11-23T16:45:12.997Z,9.45
2023-11-23T16:47:42.628Z,9.05
2023-11-23T16:50:11.462Z,10.10
2023-11-23T16:52:38.947Z,8.63
2023-11-23T16:55:09.083Z,8.85
2023-11-23T16:57:37.294Z,9.32
2023-11-23T17:00:05.390Z,8.73
2023-11-23T17:02:33.019Z,8.80
2023-11-23T17:05:09.340Z,8.10
2023-11-23T17:07:38.304Z,8.93
2023-11-23T17:10:08.843Z,7.95
2023-11-23T17:12:37.172Z,8.73
2023-11-23T17:15:07.746Z,7.93
2023-11-23T17:17:35.938Z,7.93
2023-11-23T17:20:04.060Z,8.60
2023-11-23T17:22:34.195Z,7.95
2023-11-23T17:25:03.151Z,8.57
2023-11-23T17:27:30.663Z,9.48
2023-11-23T17:29:58.208Z,8.90
2023-11-23T17:32:25.377Z,8.55
2023-11-23T17:34:52.903Z,8.57
2023-11-23T17:37:20.073Z,8.55
2023-11-23T17:39:47.538Z,8.00
2023-11-23T17:42:14.899Z,7.85
2023-11-23T17:44:42.427Z,7.97
2023-11-23T17:47:09.678Z,8.48
2023-11-23T17:49:37.158Z,7.70
2023-11-23T17:52:04.689Z,6.45
2023-11-23T17:54:32.222Z,7.20
2023-11-23T17:56:59.544Z,7.50
2023-11-23T17:59:34.852Z,7.10
2023-11-23T18:02:19.239Z,7.50
2023-11-23T18:04:47.401Z,7.15
2023-11-23T18:07:15.029Z,8.27
2023-11-23T18:09:43.532Z,7.40
2023-11-23T18:12:11.160Z,7.13
2023-11-23T18:14:38.707Z,7.50
2023-11-23T18:17:08.397Z,7.93
2023-11-23T18:19:36.332Z,7.63
2023-11-23T18:22:03.675Z,7.72
2023-11-23T18:24:31.930Z,7.50
2023-11-23T18:27:00.865Z,7.75
2023-11-23T18:29:29.291Z,7.43
2023-11-23T18:31:56.657Z,7.90
2023-11-23T18:34:24.290Z,7.63
2023-11-23T18:36:53.047Z,7.63
2023-11-23T18:39:24.232Z,7.40
2023-11-23T18:41:51.729Z,7.47
2023-11-23T18:44:19.222Z,7.55
2023-11-23T18:46:46.539Z,7.60
2023-11-23T18:49:14.615Z,7.40
2023-11-23T18:51:41.936Z,7.57
2023-11-23T18:54:09.540Z,6.85
2023-11-23T18:56:38.928Z,6.60
2023-11-23T18:59:07.461Z,6.20
2023-11-23T19:01:34.885Z,7.30
2023-11-23T19:04:04.312Z,7.85
2023-11-23T19:06:33.125Z,8.38
2023-11-23T19:09:01.337Z,7.68
2023-11-23T19:11:28.703Z,7.63
2023-11-23T19:13:57.107Z,6.88
2023-11-23T19:16:24.458Z,8.20
2023-11-23T19:18:53.189Z,7.93
2023-11-23T19:21:21.366Z,8.73
2023-11-23T19:23:49.256Z,7.35
2023-11-23T19:26:17.496Z,7.90
2023-11-23T19:28:46.469Z,7.78
2023-11-23T19:31:14.550Z,8.00
2023-11-23T19:33:42.583Z,8.23
2023-11-23T19:36:11.190Z,8.90
2023-11-23T19:38:43.891Z,8.48
2023-11-23T19:41:12.803Z,8.63
2023-11-23T19:43:40.852Z,8.32
2023-11-23T19:46:08.542Z,8.50
2023-11-23T19:48:36.641Z,9.07
2023-11-23T19:51:06.417Z,8.73
2023-11-23T19:53:40.641Z,8.65
2023-11-23T19:56:09.526Z,8.02
2023-11-23T19:58:38.601Z,7.88
2023-11-23T20:01:06.347Z,8.38
2023-11-23T20:03:34.218Z,8.90
2023-11-23T20:06:02.272Z,7.95
2023-11-23T20:08:32.324Z,7.22
2023-11-23T20:10:59.929Z,7.60
2023-11-23T20:13:27.622Z,8.30
2023-11-23T20:15:54.934Z,7.53
2023-11-23T20:18:23.020Z,7.38
2023-11-23T20:20:50.220Z,7.38
2023-11-23T20:23:17.797Z,7.70
2023-11-23T20:25:44.990Z,6.72
2023-11-23T20:28:13.602Z,7.35
2023-11-23T20:30:40.948Z,7.53
2023-11-23T20:33:09.501Z,7.40
2023-11-23T20:35:39.309Z,6.75
2023-11-23T20:38:06.757Z,6.78
2023-11-23T20:40:34.125Z,6.95
2023-11-23T20:43:01.894Z,6.85
2023-11-23T20:45:29.320Z,6.03
2023-11-23T20:47:56.980Z,6.70
2023-11-23T20:50:30.778Z,7.13
2023-11-23T20:52:58.320Z,6.65
2023-11-23T20:55:25.695Z,6.25
2023-11-23T20:57:53.959Z,6.28
2023-11-23T21:00:22.176Z,6.40
2023-11-23T21:02:50.126Z,6.43
2023-11-23T21:05:18.189Z,6.55
2023-11-23T21:07:45.864Z,6.22
2023-11-23T21:10:13.504Z,6.70
2023-11-23T21:12:41.969Z,6.80
2023-11-23T21:15:09.484Z,7.18
2023-11-23T21:17:37.752Z,5.38
2023-11-23T21:20:10.396Z,7.13
2023-11-23T21:22:37.935Z,6.53
2023-11-23T21:25:05.648Z,5.97
2023-11-23T21:27:38.556Z,6.43
2023-11-23T21:30:09.891Z,6.18
2023-11-23T21:32:38.296Z,7.25
2023-11-23T21:35:05.958Z,6.72
2023-11-23T21:37:33.406Z,6.90
2023-11-23T21:40:00.819Z,7.68
2023-11-23T21:42:28.521Z,6.50
2023-11-23T21:44:56.004Z,6.80
2023-11-23T21:47:23.611Z,6.10
2023-11-23T21:49:51.408Z,7.20
2023-11-23T21:52:19.414Z,7.50
2023-11-23T21:54:53.594Z,8.07
2023-11-23T21:57:28.750Z,8.30
2023-11-23T21:59:56.280Z,8.63
2023-11-23T22:02:23.830Z,8.95
2023-11-23T22:04:51.021Z,8.30
2023-11-23T22:07:18.577Z,9.63
2023-11-23T22:09:45.761Z,9.02
2023-11-23T22:12:13.317Z,9.65
2023-11-23T22:14:40.440Z,8.75
2023-11-23T22:17:08.519Z,9.50
2023-11-23T22:19:36.389Z,9.23
2023-11-23T22:22:06.555Z,10.40
2023-11-23T22:24:34.525Z,9.65
2023-11-23T22:27:02.820Z,9.68
2023-11-23T22:29:29.946Z,9.30
2023-11-23T22:31:59.187Z,8.90
2023-11-23T22:34:26.665Z,9.88
2023-11-23T22:36:56.019Z,9.63
2023-11-23T22:39:23.727Z,9.23
2023-11-23T22:41:51.497Z,7.65
2023-11-23T22:44:19.051Z,8.63
2023-11-23T22:46:46.652Z,7.55
2023-11-23T22:49:14.379Z,7.35
2023-11-23T22:51:42.103Z,7.15
2023-11-23T22:54:10.880Z,7.50
2023-11-23T22:56:38.369Z,6.68
2023-11-23T22:59:06.706Z,6.40
2023-11-23T23:01:34.304Z,6.53
2023-11-23T23:04:01.504Z,5.95
2023-11-23T23:06:29.540Z,6.25
2023-11-23T23:08:56.717Z,6.13
2023-11-23T23:11:25.117Z,6.00
2023-11-23T23:13:52.381Z,5.47
2023-11-23T23:16:20.553Z,5.57
2023-11-23T23:18:48.278Z,5.05
2023-11-23T23:21:15.808Z,5.35
2023-11-23T23:23:42.888Z,4.90
2023-11-23T23:26:10.336Z,4.28
2023-11-23T23:28:37.469Z,4.63
2023-11-23T23:31:05.090Z,4.82
2023-11-23T23:33:32.327Z,4.88
2023-11-23T23:36:00.182Z,5.13
2023-11-23T23:38:27.259Z,4.90
2023-11-23T23:40:55.343Z,4.25
2023-11-23T23:43:23.938Z,5.47
2023-11-23T23:45:51.481Z,6.18
2023-11-23T23:48:19.309Z,5.80
2023-11-23T23:50:46.721Z,6.93
2023-11-23T23:53:14.446Z,6.18
2023-11-23T23:55:43.018Z,5.60
2023-11-23T23:58:10.519Z,5.72
